KOR001 RKSI-ZBAD
Flight info
| Callsign | KOR001 |
|---|---|
| Flight time | 1h 31m |
| Altitude | 21700 |
| Route | NOPIK2A NOPIK Y697 AGAVO/K0765S0660 A591 IKEKA W4 FZ/K0848S1100 W4 HCH W200 DOVIV W55 DUMAP DUMAP5L |
| Aircraft | A320/M-SDE3FGHIRWY/LB1 |
Departure
| Time | 2026-04-17 07:57 |
|---|---|
| Airport | Incheon International Airport (RKSI) |
Arrival
| Time | 2026-04-17 09:29 |
|---|---|
| Airport | Beijing Daxing International Airport (ZBAD) |
| Time | Latitude | Longitude | Altitude | Speed | Heading |
|---|---|---|---|---|---|
| 2026-04-17 07:37 | 37.45258 | 126.45233 | 32 ft | 0 kts | 260° |
| 2026-04-17 07:48 | 37.45260 | 126.45247 | 32 ft | 3 kts | 262° |
| 2026-04-17 07:48 | 37.45262 | 126.45272 | 29 ft | 3 kts | 259° |
| 2026-04-17 07:49 | 37.45267 | 126.45296 | 30 ft | 3 kts | 253° |
| 2026-04-17 07:49 | 37.45273 | 126.45321 | 31 ft | 3 kts | 245° |
| 2026-04-17 07:49 | 37.45283 | 126.45343 | 29 ft | 3 kts | 226° |
| 2026-04-17 07:49 | 37.45297 | 126.45356 | 32 ft | 3 kts | 179° |
| 2026-04-17 07:50 | 37.45304 | 126.45356 | 31 ft | 0 kts | 162° |
| 2026-04-17 07:53 | 37.45290 | 126.45362 | 30 ft | 4 kts | 162° |
| 2026-04-17 07:53 | 37.45242 | 126.45399 | 32 ft | 10 kts | 125° |
| 2026-04-17 07:53 | 37.45227 | 126.45482 | 32 ft | 9 kts | 99° |
| 2026-04-17 07:53 | 37.45220 | 126.45555 | 32 ft | 8 kts | 98° |
| 2026-04-17 07:54 | 37.45212 | 126.45616 | 32 ft | 7 kts | 98° |
| 2026-04-17 07:54 | 37.45220 | 126.45699 | 32 ft | 10 kts | 64° |
| 2026-04-17 07:54 | 37.45258 | 126.45765 | 32 ft | 9 kts | 53° |
| 2026-04-17 07:54 | 37.45291 | 126.45820 | 32 ft | 8 kts | 52° |
| 2026-04-17 07:55 | 37.45330 | 126.45889 | 32 ft | 9 kts | 55° |
| 2026-04-17 07:55 | 37.45364 | 126.45953 | 32 ft | 8 kts | 56° |
| 2026-04-17 07:55 | 37.45380 | 126.45981 | 31 ft | 0 kts | 56° |
| 2026-04-17 07:56 | 37.45404 | 126.46025 | 31 ft | 9 kts | 53° |
| 2026-04-17 07:56 | 37.45456 | 126.46050 | 30 ft | 8 kts | 350° |
| 2026-04-17 07:56 | 37.45501 | 126.46024 | 30 ft | 7 kts | 327° |
| 2026-04-17 07:57 | 37.45539 | 126.45992 | 29 ft | 8 kts | 326° |
| 2026-04-17 07:57 | 37.45723 | 126.45826 | 30 ft | 73 kts | 324° |
| 2026-04-17 07:57 | 37.46348 | 126.45263 | 31 ft | 145 kts | 324° |
| 2026-04-17 07:57 | 37.47244 | 126.44458 | 640 ft | 153 kts | 321° |
| 2026-04-17 07:58 | 37.48107 | 126.43704 | 1634 ft | 150 kts | 323° |
| 2026-04-17 07:58 | 37.48974 | 126.42967 | 2503 ft | 150 kts | 326° |
| 2026-04-17 07:58 | 37.49176 | 126.42800 | 2629 ft | 153 kts | 324° |
| 2026-04-17 07:58 | 37.49579 | 126.42451 | 2807 ft | 161 kts | 324° |
| 2026-04-17 07:59 | 37.50577 | 126.41620 | 3103 ft | 182 kts | 325° |
| 2026-04-17 07:59 | 37.51706 | 126.40689 | 3347 ft | 207 kts | 325° |
| 2026-04-17 07:59 | 37.52979 | 126.39636 | 3672 ft | 231 kts | 325° |
| 2026-04-17 07:59 | 37.54387 | 126.38465 | 4071 ft | 253 kts | 325° |
| 2026-04-17 08:00 | 37.55881 | 126.37217 | 4815 ft | 261 kts | 324° |
| 2026-04-17 08:00 | 37.57213 | 126.35665 | 5634 ft | 263 kts | 303° |
| 2026-04-17 08:00 | 37.57891 | 126.33539 | 6491 ft | 265 kts | 278° |
| 2026-04-17 08:00 | 37.57964 | 126.31212 | 7314 ft | 267 kts | 270° |
| 2026-04-17 08:01 | 37.57966 | 126.28863 | 8161 ft | 269 kts | 270° |
| 2026-04-17 08:01 | 37.57962 | 126.26502 | 9016 ft | 271 kts | 270° |
| 2026-04-17 08:01 | 37.57960 | 126.24118 | 9864 ft | 273 kts | 270° |
| 2026-04-17 08:01 | 37.57894 | 126.21711 | 10442 ft | 284 kts | 262° |
| 2026-04-17 08:02 | 37.57371 | 126.19203 | 10650 ft | 308 kts | 250° |
| 2026-04-17 08:02 | 37.56400 | 126.16679 | 10808 ft | 332 kts | 244° |
| 2026-04-17 08:02 | 37.55324 | 126.14023 | 11139 ft | 346 kts | 245° |
| 2026-04-17 08:02 | 37.54250 | 126.11278 | 11756 ft | 351 kts | 246° |
| 2026-04-17 08:03 | 37.53181 | 126.08492 | 12445 ft | 355 kts | 246° |
| 2026-04-17 08:03 | 37.52109 | 126.05680 | 13117 ft | 358 kts | 246° |
| 2026-04-17 08:03 | 37.51024 | 126.02838 | 13778 ft | 362 kts | 246° |
| 2026-04-17 08:03 | 37.49928 | 125.99974 | 14370 ft | 365 kts | 246° |
| 2026-04-17 08:04 | 37.48819 | 125.97091 | 14969 ft | 367 kts | 246° |
| 2026-04-17 08:04 | 37.47698 | 125.94190 | 15575 ft | 369 kts | 246° |
| 2026-04-17 08:04 | 37.46572 | 125.91280 | 16180 ft | 371 kts | 246° |
| 2026-04-17 08:04 | 37.45437 | 125.88356 | 16767 ft | 373 kts | 246° |
| 2026-04-17 08:05 | 37.44292 | 125.85418 | 17336 ft | 375 kts | 246° |
| 2026-04-17 08:05 | 37.43142 | 125.82465 | 17906 ft | 377 kts | 246° |
| 2026-04-17 08:05 | 37.41985 | 125.79497 | 18447 ft | 379 kts | 246° |
| 2026-04-17 08:05 | 37.41007 | 125.76421 | 18934 ft | 379 kts | 255° |
| 2026-04-17 08:06 | 37.40493 | 125.73134 | 19439 ft | 379 kts | 264° |
| 2026-04-17 08:06 | 37.40398 | 125.69817 | 19929 ft | 380 kts | 269° |
| 2026-04-17 08:06 | 37.40359 | 125.66531 | 20431 ft | 381 kts | 269° |
| 2026-04-17 08:06 | 37.40320 | 125.63151 | 20925 ft | 382 kts | 269° |
| 2026-04-17 08:07 | 37.40298 | 125.59847 | 21397 ft | 384 kts | 269° |
| 2026-04-17 08:07 | 37.40280 | 125.56439 | 21863 ft | 385 kts | 269° |
| 2026-04-17 08:07 | 37.40265 | 125.53109 | 22315 ft | 387 kts | 269° |
| 2026-04-17 08:07 | 37.40254 | 125.49680 | 22769 ft | 388 kts | 269° |
| 2026-04-17 08:08 | 37.40246 | 125.46280 | 23207 ft | 389 kts | 269° |
| 2026-04-17 08:08 | 37.40242 | 125.44026 | 23490 ft | 390 kts | 269° |
| 2026-04-17 08:08 | 37.40236 | 125.39444 | 23990 ft | 392 kts | 269° |
| 2026-04-17 08:08 | 37.40230 | 125.36009 | 24340 ft | 394 kts | 269° |
| 2026-04-17 08:09 | 37.40223 | 125.32563 | 24688 ft | 395 kts | 269° |
| 2026-04-17 08:09 | 37.40215 | 125.29101 | 25035 ft | 396 kts | 269° |
| 2026-04-17 08:09 | 37.40199 | 125.25740 | 25362 ft | 397 kts | 267° |
| 2026-04-17 08:09 | 37.39836 | 125.22290 | 25676 ft | 399 kts | 260° |
| 2026-04-17 08:10 | 37.39510 | 125.20021 | 25892 ft | 399 kts | 260° |
| 2026-04-17 08:10 | 37.39016 | 125.16577 | 26217 ft | 401 kts | 260° |
| 2026-04-17 08:10 | 37.38519 | 125.13124 | 26531 ft | 402 kts | 260° |
| 2026-04-17 08:10 | 37.37851 | 125.08494 | 26943 ft | 403 kts | 260° |
| 2026-04-17 08:11 | 37.37518 | 125.06194 | 27140 ft | 404 kts | 260° |
| 2026-04-17 08:11 | 37.37010 | 125.02713 | 27431 ft | 405 kts | 260° |
| 2026-04-17 08:11 | 37.36330 | 124.98039 | 27820 ft | 407 kts | 260° |
| 2026-04-17 08:11 | 37.35992 | 124.95720 | 27972 ft | 407 kts | 260° |
| 2026-04-17 08:12 | 37.34981 | 124.88758 | 28043 ft | 403 kts | 260° |
| 2026-04-17 08:12 | 37.33966 | 124.81835 | 28035 ft | 403 kts | 260° |
| 2026-04-17 08:13 | 37.32949 | 124.74915 | 28040 ft | 403 kts | 260° |
| 2026-04-17 08:14 | 37.31405 | 124.64483 | 28037 ft | 403 kts | 260° |
| 2026-04-17 08:14 | 37.30715 | 124.57563 | 28033 ft | 403 kts | 272° |
| 2026-04-17 08:15 | 37.31084 | 124.50853 | 28029 ft | 403 kts | 273° |
| 2026-04-17 08:15 | 37.31475 | 124.43880 | 28032 ft | 403 kts | 273° |
| 2026-04-17 08:16 | 37.31869 | 124.36813 | 28029 ft | 403 kts | 273° |
| 2026-04-17 08:16 | 37.32260 | 124.29789 | 28028 ft | 403 kts | 273° |
| 2026-04-17 08:17 | 37.32649 | 124.22754 | 28024 ft | 404 kts | 273° |
| 2026-04-17 08:17 | 37.33021 | 124.15709 | 28024 ft | 404 kts | 273° |
| 2026-04-17 08:18 | 37.33383 | 124.08665 | 28023 ft | 404 kts | 273° |
| 2026-04-17 08:18 | 37.33755 | 124.01612 | 28021 ft | 404 kts | 273° |
| 2026-04-17 08:19 | 37.34128 | 123.94565 | 28023 ft | 405 kts | 273° |
| 2026-04-17 08:19 | 37.34499 | 123.87508 | 28021 ft | 405 kts | 273° |
| 2026-04-17 08:20 | 37.34857 | 123.80445 | 28021 ft | 405 kts | 273° |
| 2026-04-17 08:20 | 37.35205 | 123.73370 | 28021 ft | 406 kts | 273° |
| 2026-04-17 08:21 | 37.35559 | 123.66294 | 28023 ft | 406 kts | 273° |
| 2026-04-17 08:21 | 37.35901 | 123.59210 | 28024 ft | 406 kts | 273° |
| 2026-04-17 08:22 | 37.36236 | 123.52117 | 28024 ft | 406 kts | 273° |
| 2026-04-17 08:22 | 37.36572 | 123.45026 | 28022 ft | 407 kts | 273° |
| 2026-04-17 08:23 | 37.36907 | 123.37926 | 28020 ft | 407 kts | 273° |
| 2026-04-17 08:23 | 37.37236 | 123.30820 | 28024 ft | 407 kts | 273° |
| 2026-04-17 08:24 | 37.37563 | 123.23709 | 28029 ft | 408 kts | 273° |
| 2026-04-17 08:24 | 37.37893 | 123.16590 | 28020 ft | 408 kts | 273° |
| 2026-04-17 08:25 | 37.38216 | 123.09474 | 28028 ft | 408 kts | 273° |
| 2026-04-17 08:25 | 37.38532 | 123.02349 | 28017 ft | 408 kts | 273° |
| 2026-04-17 08:26 | 37.38843 | 122.95229 | 28021 ft | 408 kts | 273° |
| 2026-04-17 08:26 | 37.39144 | 122.88107 | 28017 ft | 408 kts | 273° |
| 2026-04-17 08:27 | 37.39448 | 122.80991 | 28008 ft | 408 kts | 273° |
| 2026-04-17 08:27 | 37.39751 | 122.73874 | 28004 ft | 407 kts | 273° |
| 2026-04-17 08:28 | 37.40038 | 122.66755 | 28000 ft | 408 kts | 273° |
| 2026-04-17 08:28 | 37.40180 | 122.63197 | 27999 ft | 408 kts | 273° |
| 2026-04-17 08:28 | 37.40323 | 122.59634 | 28001 ft | 408 kts | 273° |
| 2026-04-17 08:28 | 37.40468 | 122.56069 | 27997 ft | 408 kts | 273° |
| 2026-04-17 08:29 | 37.40611 | 122.52508 | 27994 ft | 408 kts | 273° |
| 2026-04-17 08:29 | 37.40752 | 122.48946 | 27995 ft | 408 kts | 273° |
| 2026-04-17 08:29 | 37.40889 | 122.45382 | 27995 ft | 408 kts | 273° |
| 2026-04-17 08:29 | 37.41026 | 122.41818 | 27997 ft | 408 kts | 273° |
| 2026-04-17 08:30 | 37.41163 | 122.38248 | 28012 ft | 408 kts | 273° |
| 2026-04-17 08:30 | 37.41299 | 122.34682 | 28000 ft | 408 kts | 273° |
| 2026-04-17 08:30 | 37.41431 | 122.31116 | 27997 ft | 408 kts | 273° |
| 2026-04-17 08:30 | 37.41564 | 122.27546 | 27994 ft | 408 kts | 273° |
| 2026-04-17 08:31 | 37.41699 | 122.23933 | 27993 ft | 409 kts | 273° |
| 2026-04-17 08:31 | 37.41831 | 122.20410 | 27994 ft | 409 kts | 273° |
| 2026-04-17 08:31 | 37.41963 | 122.16840 | 27994 ft | 409 kts | 273° |
| 2026-04-17 08:31 | 37.42094 | 122.13271 | 27992 ft | 409 kts | 273° |
| 2026-04-17 08:32 | 37.42223 | 122.09699 | 27993 ft | 409 kts | 273° |
| 2026-04-17 08:32 | 37.42352 | 122.06124 | 27992 ft | 409 kts | 273° |
| 2026-04-17 08:32 | 37.42479 | 122.02556 | 27993 ft | 409 kts | 273° |
| 2026-04-17 08:33 | 37.42728 | 121.95404 | 27989 ft | 409 kts | 273° |
| 2026-04-17 08:33 | 37.42851 | 121.91832 | 27992 ft | 409 kts | 272° |
| 2026-04-17 08:33 | 37.42973 | 121.88255 | 27990 ft | 409 kts | 273° |
| 2026-04-17 08:33 | 37.43095 | 121.84672 | 27990 ft | 409 kts | 273° |
| 2026-04-17 08:34 | 37.43219 | 121.81091 | 27986 ft | 410 kts | 273° |
| 2026-04-17 08:34 | 37.43342 | 121.77515 | 27988 ft | 410 kts | 273° |
| 2026-04-17 08:34 | 37.43464 | 121.73934 | 27998 ft | 410 kts | 273° |
| 2026-04-17 08:34 | 37.43580 | 121.70350 | 27985 ft | 410 kts | 272° |
| 2026-04-17 08:35 | 37.43691 | 121.66768 | 27988 ft | 410 kts | 272° |
| 2026-04-17 08:35 | 37.43803 | 121.63178 | 27987 ft | 410 kts | 272° |
| 2026-04-17 08:35 | 37.43915 | 121.59596 | 27984 ft | 410 kts | 273° |
| 2026-04-17 08:35 | 37.44029 | 121.56006 | 27989 ft | 410 kts | 273° |
| 2026-04-17 08:36 | 37.44144 | 121.52419 | 27991 ft | 410 kts | 273° |
| 2026-04-17 08:36 | 37.44259 | 121.48828 | 27989 ft | 411 kts | 273° |
| 2026-04-17 08:36 | 37.44372 | 121.45241 | 27985 ft | 411 kts | 273° |
| 2026-04-17 08:36 | 37.44483 | 121.41648 | 27980 ft | 411 kts | 272° |
| 2026-04-17 08:37 | 37.44591 | 121.38058 | 27984 ft | 411 kts | 272° |
| 2026-04-17 08:37 | 37.44695 | 121.34465 | 27977 ft | 411 kts | 272° |
| 2026-04-17 08:37 | 37.44798 | 121.30871 | 27978 ft | 411 kts | 272° |
| 2026-04-17 08:37 | 37.44900 | 121.27230 | 27984 ft | 411 kts | 272° |
| 2026-04-17 08:38 | 37.45000 | 121.23636 | 27977 ft | 411 kts | 272° |
| 2026-04-17 08:38 | 37.45146 | 121.20047 | 27975 ft | 411 kts | 277° |
| 2026-04-17 08:38 | 37.45688 | 121.16522 | 27980 ft | 411 kts | 285° |
| 2026-04-17 08:38 | 37.46663 | 121.13135 | 27972 ft | 412 kts | 291° |
| 2026-04-17 08:39 | 37.47736 | 121.09794 | 27976 ft | 412 kts | 290° |
| 2026-04-17 08:39 | 37.48807 | 121.06444 | 27971 ft | 412 kts | 290° |
| 2026-04-17 08:39 | 37.49873 | 121.03099 | 27970 ft | 412 kts | 290° |
| 2026-04-17 08:39 | 37.50941 | 120.99741 | 27986 ft | 416 kts | 290° |
| 2026-04-17 08:40 | 37.52026 | 120.96323 | 27986 ft | 424 kts | 291° |
| 2026-04-17 08:40 | 37.53128 | 120.92844 | 27983 ft | 432 kts | 290° |
| 2026-04-17 08:40 | 37.54248 | 120.89305 | 27986 ft | 437 kts | 291° |
| 2026-04-17 08:40 | 37.55379 | 120.85733 | 27986 ft | 440 kts | 291° |
| 2026-04-17 08:41 | 37.56511 | 120.82152 | 27985 ft | 440 kts | 291° |
| 2026-04-17 08:41 | 37.57644 | 120.78561 | 27984 ft | 440 kts | 291° |
| 2026-04-17 08:41 | 37.58772 | 120.74975 | 27989 ft | 440 kts | 291° |
| 2026-04-17 08:41 | 37.59918 | 120.71393 | 27984 ft | 440 kts | 291° |
| 2026-04-17 08:42 | 37.61085 | 120.67823 | 27987 ft | 441 kts | 291° |
| 2026-04-17 08:42 | 37.62267 | 120.64256 | 27981 ft | 441 kts | 292° |
| 2026-04-17 08:42 | 37.63453 | 120.60693 | 27984 ft | 440 kts | 292° |
| 2026-04-17 08:42 | 37.64636 | 120.57129 | 27982 ft | 440 kts | 292° |
| 2026-04-17 08:43 | 37.65913 | 120.53617 | 27972 ft | 441 kts | 298° |
| 2026-04-17 08:43 | 37.67447 | 120.50267 | 27976 ft | 441 kts | 299° |
| 2026-04-17 08:43 | 37.68986 | 120.46907 | 27978 ft | 442 kts | 298° |
| 2026-04-17 08:43 | 37.70523 | 120.43541 | 27980 ft | 442 kts | 298° |
| 2026-04-17 08:44 | 37.72054 | 120.40178 | 27981 ft | 442 kts | 298° |
| 2026-04-17 08:44 | 37.73586 | 120.36811 | 27978 ft | 442 kts | 298° |
| 2026-04-17 08:44 | 37.75120 | 120.33438 | 27982 ft | 442 kts | 299° |
| 2026-04-17 08:44 | 37.76653 | 120.30068 | 27978 ft | 442 kts | 299° |
| 2026-04-17 08:45 | 37.78186 | 120.26697 | 27983 ft | 442 kts | 299° |
| 2026-04-17 08:45 | 37.79715 | 120.23325 | 27980 ft | 442 kts | 299° |
| 2026-04-17 08:45 | 37.81238 | 120.19949 | 27978 ft | 442 kts | 298° |
| 2026-04-17 08:45 | 37.82762 | 120.16569 | 27978 ft | 442 kts | 299° |
| 2026-04-17 08:46 | 37.84285 | 120.13196 | 27981 ft | 442 kts | 299° |
| 2026-04-17 08:46 | 37.85808 | 120.09820 | 27966 ft | 442 kts | 299° |
| 2026-04-17 08:46 | 37.87332 | 120.06443 | 27966 ft | 442 kts | 299° |
| 2026-04-17 08:46 | 37.88855 | 120.03068 | 27969 ft | 442 kts | 299° |
| 2026-04-17 08:47 | 37.89864 | 120.00829 | 27967 ft | 442 kts | 299° |
| 2026-04-17 08:47 | 37.91384 | 119.97452 | 27977 ft | 442 kts | 299° |
| 2026-04-17 08:47 | 37.92900 | 119.94075 | 27968 ft | 441 kts | 299° |
| 2026-04-17 08:47 | 37.94929 | 119.89545 | 27967 ft | 441 kts | 299° |
| 2026-04-17 08:48 | 37.96444 | 119.86166 | 27953 ft | 441 kts | 299° |
| 2026-04-17 08:48 | 37.97469 | 119.83883 | 27953 ft | 441 kts | 299° |
| 2026-04-17 08:48 | 37.98987 | 119.80505 | 27953 ft | 441 kts | 299° |
| 2026-04-17 08:48 | 38.00486 | 119.77163 | 27953 ft | 441 kts | 299° |
| 2026-04-17 08:49 | 38.02019 | 119.73736 | 27949 ft | 441 kts | 299° |
| 2026-04-17 08:49 | 38.03529 | 119.70347 | 27951 ft | 441 kts | 299° |
| 2026-04-17 08:49 | 38.05012 | 119.67000 | 27946 ft | 441 kts | 299° |
| 2026-04-17 08:49 | 38.06535 | 119.63562 | 27950 ft | 441 kts | 299° |
| 2026-04-17 08:50 | 38.08040 | 119.60168 | 27948 ft | 441 kts | 299° |
| 2026-04-17 08:50 | 38.09546 | 119.56773 | 27947 ft | 441 kts | 299° |
| 2026-04-17 08:50 | 38.10998 | 119.53444 | 27946 ft | 441 kts | 296° |
| 2026-04-17 08:50 | 38.12220 | 119.49875 | 27945 ft | 442 kts | 293° |
| 2026-04-17 08:51 | 38.13399 | 119.46267 | 27943 ft | 442 kts | 293° |
| 2026-04-17 08:51 | 38.14576 | 119.42664 | 27945 ft | 442 kts | 293° |
| 2026-04-17 08:51 | 38.15754 | 119.39059 | 27945 ft | 442 kts | 293° |
| 2026-04-17 08:51 | 38.16933 | 119.35445 | 27939 ft | 442 kts | 293° |
| 2026-04-17 08:52 | 38.18108 | 119.31835 | 27942 ft | 442 kts | 293° |
| 2026-04-17 08:52 | 38.19283 | 119.28216 | 27941 ft | 443 kts | 293° |
| 2026-04-17 08:52 | 38.20451 | 119.24599 | 27959 ft | 443 kts | 293° |
| 2026-04-17 08:52 | 38.21618 | 119.20978 | 27950 ft | 443 kts | 293° |
| 2026-04-17 08:53 | 38.22787 | 119.17354 | 27954 ft | 443 kts | 293° |
| 2026-04-17 08:53 | 38.23957 | 119.13723 | 27946 ft | 443 kts | 293° |
| 2026-04-17 08:53 | 38.25129 | 119.10096 | 27935 ft | 443 kts | 293° |
| 2026-04-17 08:53 | 38.26303 | 119.06463 | 27959 ft | 444 kts | 293° |
| 2026-04-17 08:54 | 38.27473 | 119.02830 | 27961 ft | 444 kts | 293° |
| 2026-04-17 08:54 | 38.28644 | 118.99189 | 27967 ft | 444 kts | 293° |
| 2026-04-17 08:54 | 38.29807 | 118.95563 | 27956 ft | 444 kts | 293° |
| 2026-04-17 08:54 | 38.30978 | 118.91907 | 27962 ft | 444 kts | 293° |
| 2026-04-17 08:55 | 38.32142 | 118.88264 | 27970 ft | 444 kts | 293° |
| 2026-04-17 08:55 | 38.33304 | 118.84623 | 27960 ft | 444 kts | 293° |
| 2026-04-17 08:55 | 38.34467 | 118.80968 | 27959 ft | 444 kts | 293° |
| 2026-04-17 08:55 | 38.35624 | 118.77321 | 27955 ft | 444 kts | 293° |
| 2026-04-17 08:56 | 38.36783 | 118.73673 | 27953 ft | 444 kts | 293° |
| 2026-04-17 08:56 | 38.37947 | 118.70028 | 27955 ft | 444 kts | 293° |
| 2026-04-17 08:56 | 38.39113 | 118.66386 | 27951 ft | 444 kts | 293° |
| 2026-04-17 08:56 | 38.40281 | 118.62741 | 27952 ft | 444 kts | 293° |
| 2026-04-17 08:57 | 38.41447 | 118.59096 | 27947 ft | 444 kts | 293° |
| 2026-04-17 08:57 | 38.42608 | 118.55458 | 27938 ft | 444 kts | 293° |
| 2026-04-17 08:57 | 38.43767 | 118.51810 | 27944 ft | 444 kts | 293° |
| 2026-04-17 08:57 | 38.44926 | 118.48155 | 27934 ft | 444 kts | 293° |
| 2026-04-17 08:58 | 38.46082 | 118.44505 | 27946 ft | 444 kts | 293° |
| 2026-04-17 08:58 | 38.47239 | 118.40848 | 27932 ft | 444 kts | 293° |
| 2026-04-17 08:58 | 38.48395 | 118.37193 | 27934 ft | 444 kts | 293° |
| 2026-04-17 08:58 | 38.49545 | 118.33542 | 27931 ft | 444 kts | 293° |
| 2026-04-17 08:59 | 38.50637 | 118.30069 | 27943 ft | 444 kts | 293° |
| 2026-04-17 08:59 | 38.51788 | 118.26416 | 27910 ft | 444 kts | 293° |
| 2026-04-17 08:59 | 38.52934 | 118.22767 | 27288 ft | 442 kts | 294° |
| 2026-04-17 08:59 | 38.54072 | 118.19138 | 26722 ft | 431 kts | 294° |
| 2026-04-17 09:00 | 38.55175 | 118.15614 | 26064 ft | 424 kts | 294° |
| 2026-04-17 09:00 | 38.56267 | 118.12123 | 25411 ft | 424 kts | 294° |
| 2026-04-17 09:00 | 38.57364 | 118.08619 | 24778 ft | 424 kts | 294° |
| 2026-04-17 09:00 | 38.58453 | 118.05138 | 24158 ft | 421 kts | 294° |
| 2026-04-17 09:01 | 38.59544 | 118.01675 | 23516 ft | 418 kts | 295° |
| 2026-04-17 09:01 | 38.60687 | 117.98254 | 22678 ft | 417 kts | 296° |
| 2026-04-17 09:01 | 38.61869 | 117.94884 | 21850 ft | 414 kts | 296° |
| 2026-04-17 09:01 | 38.63066 | 117.91546 | 21040 ft | 412 kts | 296° |
| 2026-04-17 09:02 | 38.64261 | 117.88223 | 20257 ft | 410 kts | 296° |
| 2026-04-17 09:02 | 38.65441 | 117.84914 | 19487 ft | 408 kts | 295° |
| 2026-04-17 09:02 | 38.66606 | 117.81604 | 18747 ft | 407 kts | 295° |
| 2026-04-17 09:02 | 38.67759 | 117.78302 | 17985 ft | 406 kts | 295° |
| 2026-04-17 09:03 | 38.68905 | 117.75005 | 17157 ft | 405 kts | 295° |
| 2026-04-17 09:03 | 38.70046 | 117.71718 | 16353 ft | 403 kts | 295° |
| 2026-04-17 09:03 | 38.71179 | 117.68455 | 15758 ft | 398 kts | 295° |
| 2026-04-17 09:03 | 38.72288 | 117.65256 | 15271 ft | 390 kts | 295° |
| 2026-04-17 09:04 | 38.73380 | 117.62101 | 14775 ft | 384 kts | 295° |
| 2026-04-17 09:04 | 38.74453 | 117.58995 | 14294 ft | 380 kts | 295° |
| 2026-04-17 09:04 | 38.75521 | 117.55905 | 13817 ft | 378 kts | 295° |
| 2026-04-17 09:04 | 38.76583 | 117.52832 | 13296 ft | 376 kts | 295° |
| 2026-04-17 09:05 | 38.77624 | 117.49809 | 12774 ft | 374 kts | 295° |
| 2026-04-17 09:05 | 38.78669 | 117.46775 | 12255 ft | 371 kts | 295° |
| 2026-04-17 09:05 | 38.79711 | 117.43754 | 11762 ft | 369 kts | 295° |
| 2026-04-17 09:05 | 38.80745 | 117.40753 | 11250 ft | 367 kts | 295° |
| 2026-04-17 09:06 | 38.81765 | 117.37780 | 10766 ft | 362 kts | 295° |
| 2026-04-17 09:06 | 38.82770 | 117.34850 | 10278 ft | 356 kts | 295° |
| 2026-04-17 09:06 | 38.83750 | 117.31987 | 10008 ft | 344 kts | 295° |
| 2026-04-17 09:06 | 38.84689 | 117.29241 | 9852 ft | 329 kts | 295° |
| 2026-04-17 09:07 | 38.85588 | 117.26607 | 9726 ft | 315 kts | 295° |
| 2026-04-17 09:07 | 38.86449 | 117.24083 | 9595 ft | 302 kts | 295° |
| 2026-04-17 09:07 | 38.87275 | 117.21657 | 9464 ft | 291 kts | 295° |
| 2026-04-17 09:07 | 38.88070 | 117.19325 | 9334 ft | 280 kts | 295° |
| 2026-04-17 09:08 | 38.89013 | 117.17191 | 9210 ft | 273 kts | 310° |
| 2026-04-17 09:08 | 38.90291 | 117.15400 | 9076 ft | 272 kts | 313° |
| 2026-04-17 09:08 | 38.91579 | 117.13624 | 8948 ft | 272 kts | 313° |
| 2026-04-17 09:08 | 38.92923 | 117.11772 | 8829 ft | 303 kts | 313° |
| 2026-04-17 09:09 | 38.94442 | 117.09677 | 8689 ft | 336 kts | 313° |
| 2026-04-17 09:09 | 38.96112 | 117.07375 | 8572 ft | 366 kts | 313° |
| 2026-04-17 09:09 | 38.97871 | 117.04947 | 8437 ft | 374 kts | 313° |
| 2026-04-17 09:09 | 38.99643 | 117.02499 | 8314 ft | 375 kts | 313° |
| 2026-04-17 09:10 | 39.03198 | 116.97593 | 8058 ft | 378 kts | 313° |
| 2026-04-17 09:10 | 39.04999 | 116.95104 | 7947 ft | 380 kts | 312° |
| 2026-04-17 09:10 | 39.06765 | 116.92662 | 7830 ft | 381 kts | 312° |
| 2026-04-17 09:11 | 39.08566 | 116.90166 | 7694 ft | 380 kts | 312° |
| 2026-04-17 09:11 | 39.10365 | 116.87667 | 7688 ft | 381 kts | 312° |
| 2026-04-17 09:11 | 39.12162 | 116.85170 | 7701 ft | 381 kts | 312° |
| 2026-04-17 09:11 | 39.13964 | 116.82665 | 7732 ft | 381 kts | 312° |
| 2026-04-17 09:12 | 39.15764 | 116.80163 | 7784 ft | 381 kts | 312° |
| 2026-04-17 09:12 | 39.17569 | 116.77654 | 7848 ft | 381 kts | 312° |
| 2026-04-17 09:12 | 39.19367 | 116.75151 | 7902 ft | 381 kts | 312° |
| 2026-04-17 09:12 | 39.20775 | 116.73191 | 7831 ft | 370 kts | 312° |
| 2026-04-17 09:13 | 39.22478 | 116.70817 | 7598 ft | 352 kts | 312° |
| 2026-04-17 09:13 | 39.24047 | 116.68625 | 7385 ft | 338 kts | 311° |
| 2026-04-17 09:13 | 39.25596 | 116.66464 | 7183 ft | 333 kts | 311° |
| 2026-04-17 09:13 | 39.27163 | 116.64272 | 6964 ft | 332 kts | 311° |
| 2026-04-17 09:14 | 39.28573 | 116.62297 | 6777 ft | 331 kts | 311° |
| 2026-04-17 09:14 | 39.30139 | 116.60107 | 6605 ft | 331 kts | 311° |
| 2026-04-17 09:14 | 39.31832 | 116.58094 | 6483 ft | 333 kts | 325° |
| 2026-04-17 09:14 | 39.33958 | 116.56912 | 6368 ft | 337 kts | 346° |
| 2026-04-17 09:15 | 39.36281 | 116.56488 | 6253 ft | 338 kts | 351° |
| 2026-04-17 09:15 | 39.38618 | 116.56127 | 6128 ft | 338 kts | 351° |
| 2026-04-17 09:15 | 39.40958 | 116.55771 | 6004 ft | 339 kts | 351° |
| 2026-04-17 09:15 | 39.43296 | 116.55413 | 5882 ft | 338 kts | 351° |
| 2026-04-17 09:16 | 39.45633 | 116.55051 | 5758 ft | 338 kts | 351° |
| 2026-04-17 09:16 | 39.47971 | 116.54685 | 5565 ft | 338 kts | 351° |
| 2026-04-17 09:16 | 39.50306 | 116.54318 | 5356 ft | 338 kts | 351° |
| 2026-04-17 09:16 | 39.52638 | 116.53955 | 5170 ft | 338 kts | 351° |
| 2026-04-17 09:17 | 39.54973 | 116.53591 | 4972 ft | 338 kts | 351° |
| 2026-04-17 09:17 | 39.57306 | 116.53226 | 4822 ft | 338 kts | 351° |
| 2026-04-17 09:17 | 39.59639 | 116.52859 | 4695 ft | 338 kts | 351° |
| 2026-04-17 09:17 | 39.61977 | 116.52489 | 4552 ft | 335 kts | 351° |
| 2026-04-17 09:18 | 39.64271 | 116.52129 | 4328 ft | 329 kts | 351° |
| 2026-04-17 09:18 | 39.66509 | 116.51780 | 4013 ft | 319 kts | 351° |
| 2026-04-17 09:18 | 39.68684 | 116.51440 | 3697 ft | 311 kts | 351° |
| 2026-04-17 09:18 | 39.70808 | 116.51107 | 3376 ft | 304 kts | 351° |
| 2026-04-17 09:19 | 39.72885 | 116.50780 | 3069 ft | 297 kts | 351° |
| 2026-04-17 09:19 | 39.74891 | 116.50464 | 2951 ft | 283 kts | 351° |
| 2026-04-17 09:19 | 39.76798 | 116.50163 | 2859 ft | 270 kts | 350° |
| 2026-04-17 09:19 | 39.78541 | 116.49553 | 2756 ft | 251 kts | 325° |
| 2026-04-17 09:20 | 39.79685 | 116.48006 | 2659 ft | 231 kts | 291° |
| 2026-04-17 09:20 | 39.79986 | 116.46042 | 2555 ft | 218 kts | 262° |
| 2026-04-17 09:20 | 39.79810 | 116.44109 | 2431 ft | 215 kts | 259° |
| 2026-04-17 09:20 | 39.79626 | 116.42176 | 2314 ft | 215 kts | 259° |
| 2026-04-17 09:21 | 39.79443 | 116.40250 | 2179 ft | 213 kts | 260° |
| 2026-04-17 09:21 | 39.79261 | 116.38328 | 2079 ft | 216 kts | 259° |
| 2026-04-17 09:21 | 39.79034 | 116.36404 | 1996 ft | 212 kts | 249° |
| 2026-04-17 09:21 | 39.78175 | 116.34982 | 1991 ft | 195 kts | 206° |
| 2026-04-17 09:22 | 39.76896 | 116.34743 | 1991 ft | 188 kts | 171° |
| 2026-04-17 09:22 | 39.75615 | 116.35098 | 1998 ft | 186 kts | 173° |
| 2026-04-17 09:22 | 39.74417 | 116.35296 | 2003 ft | 161 kts | 176° |
| 2026-04-17 09:22 | 39.73354 | 116.35403 | 2000 ft | 147 kts | 178° |
| 2026-04-17 09:23 | 39.72364 | 116.35507 | 2017 ft | 140 kts | 176° |
| 2026-04-17 09:23 | 39.71395 | 116.35636 | 2002 ft | 139 kts | 175° |
| 2026-04-17 09:23 | 39.70442 | 116.35776 | 1999 ft | 137 kts | 176° |
| 2026-04-17 09:23 | 39.69806 | 116.35873 | 2000 ft | 136 kts | 176° |
| 2026-04-17 09:24 | 39.68856 | 116.36020 | 2006 ft | 141 kts | 176° |
| 2026-04-17 09:24 | 39.67871 | 116.36174 | 2001 ft | 143 kts | 175° |
| 2026-04-17 09:24 | 39.66882 | 116.36331 | 2002 ft | 143 kts | 176° |
| 2026-04-17 09:24 | 39.65573 | 116.36538 | 2008 ft | 143 kts | 176° |
| 2026-04-17 09:25 | 39.64582 | 116.36695 | 2006 ft | 144 kts | 176° |
| 2026-04-17 09:25 | 39.63912 | 116.36801 | 2006 ft | 144 kts | 176° |
| 2026-04-17 09:26 | 39.59759 | 116.37460 | 1690 ft | 143 kts | 174° |
| 2026-04-17 09:26 | 39.58792 | 116.37613 | 1511 ft | 139 kts | 175° |
| 2026-04-17 09:26 | 39.58147 | 116.37715 | 1394 ft | 137 kts | 175° |
| 2026-04-17 09:27 | 39.57211 | 116.37863 | 1218 ft | 134 kts | 175° |
| 2026-04-17 09:27 | 39.56281 | 116.38010 | 1041 ft | 135 kts | 175° |
| 2026-04-17 09:27 | 39.55339 | 116.38159 | 853 ft | 137 kts | 175° |
| 2026-04-17 09:27 | 39.54393 | 116.38311 | 678 ft | 137 kts | 174° |
| 2026-04-17 09:28 | 39.53446 | 116.38468 | 482 ft | 138 kts | 173° |
| 2026-04-17 09:28 | 39.52491 | 116.38613 | 336 ft | 139 kts | 174° |
| 2026-04-17 09:28 | 39.51530 | 116.38767 | 114 ft | 138 kts | 174° |
| 2026-04-17 09:28 | 39.50717 | 116.38890 | 103 ft | 94 kts | 174° |
| 2026-04-17 09:29 | 39.50226 | 116.38970 | 100 ft | 53 kts | 173° |
| 2026-04-17 09:29 | 39.50007 | 116.39047 | 99 ft | 26 kts | 145° |
| 2026-04-17 09:29 | 39.49862 | 116.39177 | 104 ft | 25 kts | 145° |
| 2026-04-17 09:29 | 39.49707 | 116.39277 | 108 ft | 25 kts | 171° |
| 2026-04-17 09:30 | 39.49527 | 116.39306 | 106 ft | 27 kts | 173° |
| 2026-04-17 09:30 | 39.49340 | 116.39336 | 107 ft | 27 kts | 168° |
| 2026-04-17 09:30 | 39.49180 | 116.39457 | 108 ft | 24 kts | 146° |
| 2026-04-17 09:30 | 39.49151 | 116.39632 | 108 ft | 21 kts | 83° |
| 2026-04-17 09:31 | 39.49171 | 116.39829 | 108 ft | 23 kts | 83° |
| 2026-04-17 09:31 | 39.49189 | 116.40042 | 109 ft | 27 kts | 84° |
| 2026-04-17 09:31 | 39.49212 | 116.40281 | 108 ft | 19 kts | 83° |
| 2026-04-17 09:31 | 39.49291 | 116.40350 | 108 ft | 14 kts | 352° |
| 2026-04-17 09:32 | 39.49415 | 116.40329 | 108 ft | 24 kts | 353° |
| 2026-04-17 09:32 | 39.49614 | 116.40298 | 108 ft | 32 kts | 352° |
| 2026-04-17 09:32 | 39.49837 | 116.40260 | 108 ft | 32 kts | 353° |
| 2026-04-17 09:32 | 39.50060 | 116.40225 | 108 ft | 32 kts | 353° |
| 2026-04-17 09:33 | 39.50281 | 116.40193 | 107 ft | 32 kts | 353° |
| 2026-04-17 09:33 | 39.50500 | 116.40157 | 108 ft | 32 kts | 352° |
| 2026-04-17 09:33 | 39.50637 | 116.40142 | 108 ft | 2 kts | 38° |
| 2026-04-17 09:33 | 39.50640 | 116.40182 | 108 ft | 14 kts | 87° |
| 2026-04-17 09:34 | 39.50719 | 116.40241 | 108 ft | 13 kts | 347° |
| 2026-04-17 09:34 | 39.50758 | 116.40300 | 108 ft | 10 kts | 96° |
| 2026-04-17 09:34 | 39.50752 | 116.40357 | 108 ft | 2 kts | 98° |
| 2026-04-17 09:34 | 39.50752 | 116.40359 | 108 ft | 0 kts | 98° |